sensor_id;sensor_type;location;lat;lon;timestamp;pressure;altitude;pressure_sealevel;temperature;humidity
25664;BME280;13522;50.018;20.014;2023-01-30T00:00:10;99028.02;;;-1.80;97.66
25664;BME280;13522;50.018;20.014;2023-01-30T00:03:25;99018.39;;;-1.78;97.90
25664;BME280;13522;50.018;20.014;2023-01-30T00:06:38;99013.14;;;-1.77;97.88
25664;BME280;13522;50.018;20.014;2023-01-30T00:09:50;99004.59;;;-1.80;97.90
25664;BME280;13522;50.018;20.014;2023-01-30T00:13:02;98991.70;;;-1.83;98.05
25664;BME280;13522;50.018;20.014;2023-01-30T00:16:15;98990.14;;;-1.87;98.49
25664;BME280;13522;50.018;20.014;2023-01-30T00:19:27;98975.62;;;-1.93;98.92
25664;BME280;13522;50.018;20.014;2023-01-30T00:22:40;98974.90;;;-1.96;98.69
25664;BME280;13522;50.018;20.014;2023-01-30T00:25:54;98968.77;;;-1.95;98.68
25664;BME280;13522;50.018;20.014;2023-01-30T00:29:06;98956.55;;;-1.93;99.52
25664;BME280;13522;50.018;20.014;2023-01-30T00:32:18;98957.34;;;-1.91;99.12
25664;BME280;13522;50.018;20.014;2023-01-30T00:35:33;98941.58;;;-1.88;99.49
25664;BME280;13522;50.018;20.014;2023-01-30T00:38:47;98933.59;;;-1.84;99.26
25664;BME280;13522;50.018;20.014;2023-01-30T00:41:59;98927.42;;;-1.81;99.41
25664;BME280;13522;50.018;20.014;2023-01-30T00:45:26;98923.08;;;-1.81;99.10
25664;BME280;13522;50.018;20.014;2023-01-30T00:48:52;98916.16;;;-1.82;98.92
25664;BME280;13522;50.018;20.014;2023-01-30T00:52:05;98911.81;;;-1.81;99.03
25664;BME280;13522;50.018;20.014;2023-01-30T00:55:18;98890.84;;;-1.78;98.79
25664;BME280;13522;50.018;20.014;2023-01-30T00:58:30;98878.50;;;-1.73;99.06
25664;BME280;13522;50.018;20.014;2023-01-30T01:01:42;98876.80;;;-1.74;99.03
25664;BME280;13522;50.018;20.014;2023-01-30T01:04:54;98871.66;;;-1.76;98.79
25664;BME280;13522;50.018;20.014;2023-01-30T01:08:07;98869.06;;;-1.76;99.89
25664;BME280;13522;50.018;20.014;2023-01-30T01:11:19;98855.97;;;-1.74;99.06
25664;BME280;13522;50.018;20.014;2023-01-30T01:14:35;98853.96;;;-1.67;99.43
25664;BME280;13522;50.018;20.014;2023-01-30T01:17:47;98845.19;;;-1.65;99.72
25664;BME280;13522;50.018;20.014;2023-01-30T01:21:00;98837.23;;;-1.62;98.75
25664;BME280;13522;50.018;20.014;2023-01-30T01:24:14;98830.27;;;-1.61;98.95
25664;BME280;13522;50.018;20.014;2023-01-30T01:27:27;98829.15;;;-1.56;99.08
25664;BME280;13522;50.018;20.014;2023-01-30T01:30:39;98819.66;;;-1.57;98.83
25664;BME280;13522;50.018;20.014;2023-01-30T01:33:52;98816.13;;;-1.56;98.79
25664;BME280;13522;50.018;20.014;2023-01-30T01:37:04;98817.06;;;-1.57;98.62
25664;BME280;13522;50.018;20.014;2023-01-30T01:40:19;98810.14;;;-1.58;98.72
25664;BME280;13522;50.018;20.014;2023-01-30T01:44:06;98798.32;;;-1.65;98.67
25664;BME280;13522;50.018;20.014;2023-01-30T01:47:22;98783.87;;;-1.72;98.51
25664;BME280;13522;50.018;20.014;2023-01-30T01:50:39;98778.15;;;-1.80;99.30
25664;BME280;13522;50.018;20.014;2023-01-30T01:53:55;98773.20;;;-1.86;99.57
25664;BME280;13522;50.018;20.014;2023-01-30T01:57:13;98766.41;;;-1.89;99.61
25664;BME280;13522;50.018;20.014;2023-01-30T02:00:26;98760.53;;;-1.94;99.91
25664;BME280;13522;50.018;20.014;2023-01-30T02:03:41;98752.88;;;-1.97;100.00
25664;BME280;13522;50.018;20.014;2023-01-30T02:06:55;98750.47;;;-2.01;100.00
25664;BME280;13522;50.018;20.014;2023-01-30T02:10:10;98748.01;;;-2.04;100.00
25664;BME280;13522;50.018;20.014;2023-01-30T02:13:25;98735.19;;;-2.09;100.00
25664;BME280;13522;50.018;20.014;2023-01-30T02:16:38;98729.28;;;-2.12;100.00
25664;BME280;13522;50.018;20.014;2023-01-30T02:19:53;98731.88;;;-2.12;100.00
25664;BME280;13522;50.018;20.014;2023-01-30T02:23:26;98712.94;;;-2.16;100.00
25664;BME280;13522;50.018;20.014;2023-01-30T02:27:03;98706.17;;;-2.20;100.00
25664;BME280;13522;50.018;20.014;2023-01-30T02:31:06;98714.20;;;-2.24;100.00
25664;BME280;13522;50.018;20.014;2023-01-30T02:34:34;98715.09;;;-2.25;100.00
25664;BME280;13522;50.018;20.014;2023-01-30T02:37:59;98709.26;;;-2.30;100.00
25664;BME280;13522;50.018;20.014;2023-01-30T02:41:21;98701.57;;;-2.33;100.00
25664;BME280;13522;50.018;20.014;2023-01-30T02:44:42;98705.17;;;-2.36;100.00
25664;BME280;13522;50.018;20.014;2023-01-30T02:47:59;98693.06;;;-2.37;100.00
25664;BME280;13522;50.018;20.014;2023-01-30T02:51:17;98689.68;;;-2.39;100.00
25664;BME280;13522;50.018;20.014;2023-01-30T02:54:30;98691.58;;;-2.42;100.00
25664;BME280;13522;50.018;20.014;2023-01-30T02:57:43;98682.22;;;-2.46;100.00
25664;BME280;13522;50.018;20.014;2023-01-30T03:01:17;98686.63;;;-2.48;100.00
25664;BME280;13522;50.018;20.014;2023-01-30T03:04:32;98673.75;;;-2.51;100.00
25664;BME280;13522;50.018;20.014;2023-01-30T03:07:57;98663.42;;;-2.53;100.00
25664;BME280;13522;50.018;20.014;2023-01-30T03:11:11;98670.52;;;-2.56;100.00
25664;BME280;13522;50.018;20.014;2023-01-30T03:14:29;98660.11;;;-2.56;100.00
25664;BME280;13522;50.018;20.014;2023-01-30T03:17:46;98661.05;;;-2.57;100.00
25664;BME280;13522;50.018;20.014;2023-01-30T03:21:04;98662.08;;;-2.61;100.00
25664;BME280;13522;50.018;20.014;2023-01-30T03:24:17;98661.16;;;-2.60;100.00
25664;BME280;13522;50.018;20.014;2023-01-30T03:27:30;98654.14;;;-2.58;100.00
25664;BME280;13522;50.018;20.014;2023-01-30T03:30:44;98643.66;;;-2.57;100.00
25664;BME280;13522;50.018;20.014;2023-01-30T03:33:56;98630.55;;;-2.54;100.00
25664;BME280;13522;50.018;20.014;2023-01-30T03:37:09;98621.76;;;-2.51;100.00
25664;BME280;13522;50.018;20.014;2023-01-30T03:40:23;98635.87;;;-2.57;100.00
25664;BME280;13522;50.018;20.014;2023-01-30T03:43:36;98630.22;;;-2.67;100.00
25664;BME280;13522;50.018;20.014;2023-01-30T03:46:48;98619.75;;;-2.65;100.00
25664;BME280;13522;50.018;20.014;2023-01-30T03:50:01;98618.16;;;-2.68;100.00
25664;BME280;13522;50.018;20.014;2023-01-30T03:53:13;98618.34;;;-2.72;100.00
25664;BME280;13522;50.018;20.014;2023-01-30T03:56:26;98605.16;;;-2.68;100.00
25664;BME280;13522;50.018;20.014;2023-01-30T03:59:39;98598.26;;;-2.69;100.00
25664;BME280;13522;50.018;20.014;2023-01-30T04:02:52;98587.75;;;-2.66;100.00
25664;BME280;13522;50.018;20.014;2023-01-30T04:06:05;98585.00;;;-2.62;100.00
25664;BME280;13522;50.018;20.014;2023-01-30T04:09:18;98593.66;;;-2.62;100.00
25664;BME280;13522;50.018;20.014;2023-01-30T04:12:31;98592.95;;;-2.66;100.00
25664;BME280;13522;50.018;20.014;2023-01-30T04:15:44;98584.23;;;-2.65;100.00
25664;BME280;13522;50.018;20.014;2023-01-30T04:19:01;98580.84;;;-2.67;100.00
25664;BME280;13522;50.018;20.014;2023-01-30T04:22:13;98578.25;;;-2.67;100.00
25664;BME280;13522;50.018;20.014;2023-01-30T04:25:26;98573.05;;;-2.67;100.00
25664;BME280;13522;50.018;20.014;2023-01-30T04:28:38;98570.45;;;-2.67;100.00
25664;BME280;13522;50.018;20.014;2023-01-30T04:31:51;98570.45;;;-2.67;100.00
25664;BME280;13522;50.018;20.014;2023-01-30T04:35:07;98566.18;;;-2.68;100.00
25664;BME280;13522;50.018;20.014;2023-01-30T04:38:20;98555.01;;;-2.70;100.00
25664;BME280;13522;50.018;20.014;2023-01-30T04:41:32;98551.41;;;-2.67;100.00
25664;BME280;13522;50.018;20.014;2023-01-30T04:44:45;98554.23;;;-2.72;100.00
25664;BME280;13522;50.018;20.014;2023-01-30T04:47:59;98553.45;;;-2.74;100.00
25664;BME280;13522;50.018;20.014;2023-01-30T04:51:12;98543.06;;;-2.74;100.00
25664;BME280;13522;50.018;20.014;2023-01-30T04:54:25;98529.98;;;-2.72;100.00
25664;BME280;13522;50.018;20.014;2023-01-30T04:57:37;98530.84;;;-2.72;100.00
25664;BME280;13522;50.018;20.014;2023-01-30T05:00:50;98528.44;;;-2.76;100.00
25664;BME280;13522;50.018;20.014;2023-01-30T05:04:04;98520.56;;;-2.75;100.00
25664;BME280;13522;50.018;20.014;2023-01-30T05:07:17;98525.57;;;-2.70;100.00
25664;BME280;13522;50.018;20.014;2023-01-30T05:10:29;98520.49;;;-2.73;99.48
25664;BME280;13522;50.018;20.014;2023-01-30T05:13:41;98533.30;;;-2.69;99.60
25664;BME280;13522;50.018;20.014;2023-01-30T05:16:54;98526.34;;;-2.68;98.46
25664;BME280;13522;50.018;20.014;2023-01-30T05:20:09;98519.05;;;-2.60;97.33
25664;BME280;13522;50.018;20.014;2023-01-30T05:23:22;98521.92;;;-2.66;97.15
25664;BME280;13522;50.018;20.014;2023-01-30T05:26:35;98520.03;;;-2.62;97.53
25664;BME280;13522;50.018;20.014;2023-01-30T05:29:49;98505.48;;;-2.67;97.96
25664;BME280;13522;50.018;20.014;2023-01-30T05:33:01;98489.81;;;-2.65;98.70
25664;BME280;13522;50.018;20.014;2023-01-30T05:36:15;98479.50;;;-2.67;99.07
25664;BME280;13522;50.018;20.014;2023-01-30T05:39:29;98471.85;;;-2.70;99.11
25664;BME280;13522;50.018;20.014;2023-01-30T05:42:41;98470.23;;;-2.72;99.16
25664;BME280;13522;50.018;20.014;2023-01-30T05:45:55;98466.38;;;-2.63;99.06
25664;BME280;13522;50.018;20.014;2023-01-30T05:49:08;98465.73;;;-2.69;98.27
25664;BME280;13522;50.018;20.014;2023-01-30T05:52:19;98474.80;;;-2.58;98.67
25664;BME280;13522;50.018;20.014;2023-01-30T05:55:32;98471.30;;;-2.57;97.63
25664;BME280;13522;50.018;20.014;2023-01-30T05:58:48;98477.67;;;-2.65;97.14
25664;BME280;13522;50.018;20.014;2023-01-30T06:02:01;98465.45;;;-2.62;97.24
25664;BME280;13522;50.018;20.014;2023-01-30T06:05:15;98447.13;;;-2.59;97.57
25664;BME280;13522;50.018;20.014;2023-01-30T06:08:28;98447.95;;;-2.59;96.75
25664;BME280;13522;50.018;20.014;2023-01-30T06:11:40;98433.21;;;-2.58;95.58
25664;BME280;13522;50.018;20.014;2023-01-30T06:14:53;98445.16;;;-2.54;95.46
25664;BME280;13522;50.018;20.014;2023-01-30T06:18:05;98426.03;;;-2.53;94.47
25664;BME280;13522;50.018;20.014;2023-01-30T06:21:18;98422.38;;;-2.49;94.05
25664;BME280;13522;50.018;20.014;2023-01-30T06:24:30;98420.42;;;-2.44;94.06
25664;BME280;13522;50.018;20.014;2023-01-30T06:27:45;98421.97;;;-2.40;92.28
25664;BME280;13522;50.018;20.014;2023-01-30T06:30:58;98395.67;;;-2.34;91.72
25664;BME280;13522;50.018;20.014;2023-01-30T06:34:11;98383.45;;;-2.32;91.01
25664;BME280;13522;50.018;20.014;2023-01-30T06:37:23;98367.69;;;-2.29;90.55
25664;BME280;13522;50.018;20.014;2023-01-30T06:40:36;98365.72;;;-2.24;89.49
25664;BME280;13522;50.018;20.014;2023-01-30T06:43:48;98377.36;;;-2.14;89.24
25664;BME280;13522;50.018;20.014;2023-01-30T06:47:00;98359.76;;;-2.09;88.93
25664;BME280;13522;50.018;20.014;2023-01-30T06:50:13;98349.05;;;-2.03;87.87
25664;BME280;13522;50.018;20.014;2023-01-30T06:53:27;98347.98;;;-1.99;87.73
25664;BME280;13522;50.018;20.014;2023-01-30T06:56:39;98364.23;;;-1.94;87.71
25664;BME280;13522;50.018;20.014;2023-01-30T06:59:51;98354.42;;;-1.89;87.49
25664;BME280;13522;50.018;20.014;2023-01-30T07:03:04;98356.85;;;-1.86;88.16
25664;BME280;13522;50.018;20.014;2023-01-30T07:06:17;98353.17;;;-1.82;86.85
25664;BME280;13522;50.018;20.014;2023-01-30T07:09:29;98341.87;;;-1.81;86.43
25664;BME280;13522;50.018;20.014;2023-01-30T07:12:41;98333.84;;;-1.77;87.20
25664;BME280;13522;50.018;20.014;2023-01-30T07:15:54;98313.83;;;-1.76;86.91
25664;BME280;13522;50.018;20.014;2023-01-30T07:19:06;98291.80;;;-1.69;87.33
25664;BME280;13522;50.018;20.014;2023-01-30T07:22:18;98296.83;;;-1.66;87.31
25664;BME280;13522;50.018;20.014;2023-01-30T07:25:30;98291.16;;;-1.57;86.60
25664;BME280;13522;50.018;20.014;2023-01-30T07:28:43;98290.52;;;-1.45;85.98
25664;BME280;13522;50.018;20.014;2023-01-30T07:31:55;98284.99;;;-1.39;84.32
25664;BME280;13522;50.018;20.014;2023-01-30T07:35:09;98284.30;;;-1.27;83.87
25664;BME280;13522;50.018;20.014;2023-01-30T07:38:21;98292.31;;;-1.14;82.94
25664;BME280;13522;50.018;20.014;2023-01-30T07:41:33;98297.44;;;-1.13;82.72
25664;BME280;13522;50.018;20.014;2023-01-30T07:44:47;98302.50;;;-1.10;82.68
25664;BME280;13522;50.018;20.014;2023-01-30T07:47:59;98308.28;;;-1.05;82.39
25664;BME280;13522;50.018;20.014;2023-01-30T07:51:11;98301.92;;;-0.99;82.14
25664;BME280;13522;50.018;20.014;2023-01-30T07:54:23;98309.23;;;-0.90;82.11
25664;BME280;13522;50.018;20.014;2023-01-30T07:57:35;98307.05;;;-0.82;82.30
25664;BME280;13522;50.018;20.014;2023-01-30T08:00:47;98302.25;;;-0.74;82.16
25664;BME280;13522;50.018;20.014;2023-01-30T08:04:00;98290.55;;;-0.67;82.15
25664;BME280;13522;50.018;20.014;2023-01-30T08:07:12;98299.97;;;-0.64;81.40
25664;BME280;13522;50.018;20.014;2023-01-30T08:10:24;98286.75;;;-0.61;81.25
25664;BME280;13522;50.018;20.014;2023-01-30T08:13:36;98269.34;;;-0.61;81.81
25664;BME280;13522;50.018;20.014;2023-01-30T08:16:49;98278.87;;;-0.60;81.57
25664;BME280;13522;50.018;20.014;2023-01-30T08:20:01;98266.58;;;-0.58;81.37
25664;BME280;13522;50.018;20.014;2023-01-30T08:23:14;98261.09;;;-0.53;81.82
25664;BME280;13522;50.018;20.014;2023-01-30T08:26:26;98252.16;;;-0.49;81.56
25664;BME280;13522;50.018;20.014;2023-01-30T08:29:38;98241.38;;;-0.43;81.60
25664;BME280;13522;50.018;20.014;2023-01-30T08:32:51;98244.39;;;-0.35;80.88
25664;BME280;13522;50.018;20.014;2023-01-30T08:36:03;98238.81;;;-0.29;80.42
25664;BME280;13522;50.018;20.014;2023-01-30T08:39:16;98238.95;;;-0.17;80.84
25664;BME280;13522;50.018;20.014;2023-01-30T08:42:29;98222.09;;;-0.11;80.06
25664;BME280;13522;50.018;20.014;2023-01-30T08:45:41;98207.45;;;-0.14;79.98
25664;BME280;13522;50.018;20.014;2023-01-30T08:48:53;98200.13;;;0.07;79.78
25664;BME280;13522;50.018;20.014;2023-01-30T08:52:05;98207.22;;;0.33;79.17
25664;BME280;13522;50.018;20.014;2023-01-30T08:55:18;98221.02;;;0.35;78.91
25664;BME280;13522;50.018;20.014;2023-01-30T08:58:30;98210.20;;;0.41;79.34
25664;BME280;13522;50.018;20.014;2023-01-30T09:01:42;98199.38;;;0.47;79.75
25664;BME280;13522;50.018;20.014;2023-01-30T09:04:54;98190.47;;;0.64;79.45
25664;BME280;13522;50.018;20.014;2023-01-30T09:08:07;98175.76;;;0.89;78.89
25664;BME280;13522;50.018;20.014;2023-01-30T09:11:20;98161.67;;;1.19;77.87
25664;BME280;13522;50.018;20.014;2023-01-30T09:14:33;98160.88;;;1.43;77.16
25664;BME280;13522;50.018;20.014;2023-01-30T09:17:45;98168.88;;;1.54;76.80
25664;BME280;13522;50.018;20.014;2023-01-30T09:21:05;98158.81;;;1.61;76.35
25664;BME280;13522;50.018;20.014;2023-01-30T09:24:17;98149.16;;;1.49;77.93
25664;BME280;13522;50.018;20.014;2023-01-30T09:27:32;98150.64;;;1.40;78.58
25664;BME280;13522;50.018;20.014;2023-01-30T09:30:44;98161.27;;;1.25;79.32
25664;BME280;13522;50.018;20.014;2023-01-30T09:33:56;98161.33;;;1.11;80.05
25664;BME280;13522;50.018;20.014;2023-01-30T09:37:08;98152.83;;;1.07;80.98
25664;BME280;13522;50.018;20.014;2023-01-30T09:40:24;98147.36;;;0.98;81.28
25664;BME280;13522;50.018;20.014;2023-01-30T09:43:46;98134.50;;;0.95;81.78
25664;BME280;13522;50.018;20.014;2023-01-30T09:47:08;98137.95;;;0.95;82.13
25664;BME280;13522;50.018;20.014;2023-01-30T09:50:34;98120.19;;;1.00;82.33
25664;BME280;13522;50.018;20.014;2023-01-30T09:54:11;98113.70;;;0.93;82.63
25664;BME280;13522;50.018;20.014;2023-01-30T09:57:27;98103.13;;;0.95;83.29
25664;BME280;13522;50.018;20.014;2023-01-30T10:00:40;98104.45;;;0.87;83.24
25664;BME280;13522;50.018;20.014;2023-01-30T10:04:08;98113.36;;;0.85;83.85
25664;BME280;13522;50.018;20.014;2023-01-30T10:07:25;98096.09;;;0.82;83.86
25664;BME280;13522;50.018;20.014;2023-01-30T10:10:47;98088.03;;;0.85;84.65
25664;BME280;13522;50.018;20.014;2023-01-30T10:14:14;98079.05;;;0.89;84.63
25664;BME280;13522;50.018;20.014;2023-01-30T10:18:05;98069.95;;;0.82;84.99
25664;BME280;13522;50.018;20.014;2023-01-30T10:21:34;98057.22;;;0.91;85.47
25664;BME280;13522;50.018;20.014;2023-01-30T10:24:56;98033.89;;;0.87;85.61
25664;BME280;13522;50.018;20.014;2023-01-30T10:28:15;98027.74;;;1.01;85.48
25664;BME280;13522;50.018;20.014;2023-01-30T10:31:33;98042.72;;;1.12;85.67
25664;BME280;13522;50.018;20.014;2023-01-30T10:34:52;98015.23;;;1.19;85.57
25664;BME280;13522;50.018;20.014;2023-01-30T10:38:10;98020.25;;;1.22;85.64
25664;BME280;13522;50.018;20.014;2023-01-30T10:41:27;98004.78;;;1.19;85.34
25664;BME280;13522;50.018;20.014;2023-01-30T10:44:42;98006.55;;;1.18;85.59
25664;BME280;13522;50.018;20.014;2023-01-30T10:48:02;98001.09;;;1.21;86.15
25664;BME280;13522;50.018;20.014;2023-01-30T10:51:25;97993.17;;;1.23;85.99
25664;BME280;13522;50.018;20.014;2023-01-30T10:54:59;97988.22;;;1.31;85.66
25664;BME280;13522;50.018;20.014;2023-01-30T10:58:19;97985.42;;;1.34;85.84
25664;BME280;13522;50.018;20.014;2023-01-30T11:01:36;97997.25;;;1.27;86.72
25664;BME280;13522;50.018;20.014;2023-01-30T11:04:57;97987.94;;;1.23;87.45
25664;BME280;13522;50.018;20.014;2023-01-30T11:08:20;98000.70;;;1.15;88.18
25664;BME280;13522;50.018;20.014;2023-01-30T11:11:41;97980.70;;;1.14;90.00
25664;BME280;13522;50.018;20.014;2023-01-30T11:14:58;97985.50;;;1.07;91.08
25664;BME280;13522;50.018;20.014;2023-01-30T11:18:14;97972.55;;;1.06;92.06
25664;BME280;13522;50.018;20.014;2023-01-30T11:21:31;97969.73;;;1.09;92.55
25664;BME280;13522;50.018;20.014;2023-01-30T11:24:48;97962.63;;;1.11;92.77
25664;BME280;13522;50.018;20.014;2023-01-30T11:28:04;97949.14;;;1.17;92.40
25664;BME280;13522;50.018;20.014;2023-01-30T11:31:19;97951.95;;;1.14;92.36
25664;BME280;13522;50.018;20.014;2023-01-30T11:34:36;97947.44;;;1.03;93.14
25664;BME280;13522;50.018;20.014;2023-01-30T11:37:49;97933.23;;;0.95;94.85
25664;BME280;13522;50.018;20.014;2023-01-30T11:41:18;97942.64;;;0.84;95.72
25664;BME280;13522;50.018;20.014;2023-01-30T11:44:36;97933.84;;;0.85;96.21
25664;BME280;13522;50.018;20.014;2023-01-30T11:47:52;97924.85;;;0.89;96.10
25664;BME280;13522;50.018;20.014;2023-01-30T11:51:09;97912.33;;;0.95;96.04
25664;BME280;13522;50.018;20.014;2023-01-30T11:54:25;97914.84;;;1.09;96.55
25664;BME280;13522;50.018;20.014;2023-01-30T11:57:44;97913.15;;;1.08;97.00
25664;BME280;13522;50.018;20.014;2023-01-30T12:01:00;97912.95;;;1.11;97.15
25664;BME280;13522;50.018;20.014;2023-01-30T12:04:14;97897.88;;;1.02;98.78
25664;BME280;13522;50.018;20.014;2023-01-30T12:07:28;97896.95;;;1.03;100.00
25664;BME280;13522;50.018;20.014;2023-01-30T12:10:43;97875.00;;;0.93;100.00
25664;BME280;13522;50.018;20.014;2023-01-30T12:14:07;97890.05;;;0.76;100.00
25664;BME280;13522;50.018;20.014;2023-01-30T12:17:30;97894.00;;;0.69;100.00
25664;BME280;13522;50.018;20.014;2023-01-30T12:20:50;97905.59;;;0.65;100.00
25664;BME280;13522;50.018;20.014;2023-01-30T12:24:10;97884.29;;;0.71;100.00
25664;BME280;13522;50.018;20.014;2023-01-30T12:27:28;97878.14;;;0.72;100.00
25664;BME280;13522;50.018;20.014;2023-01-30T12:31:00;97875.62;;;0.83;100.00
25664;BME280;13522;50.018;20.014;2023-01-30T12:34:13;97872.19;;;0.83;100.00
25664;BME280;13522;50.018;20.014;2023-01-30T12:37:35;97877.50;;;0.81;100.00
25664;BME280;13522;50.018;20.014;2023-01-30T12:41:00;97873.00;;;0.83;100.00
25664;BME280;13522;50.018;20.014;2023-01-30T12:44:28;97872.08;;;0.84;100.00
25664;BME280;13522;50.018;20.014;2023-01-30T12:48:06;97867.59;;;0.86;100.00
25664;BME280;13522;50.018;20.014;2023-01-30T12:51:53;97869.36;;;0.99;100.00
25664;BME280;13522;50.018;20.014;2023-01-30T12:55:26;97873.43;;;1.03;100.00
25664;BME280;13522;50.018;20.014;2023-01-30T12:58:47;97858.05;;;1.11;100.00
25664;BME280;13522;50.018;20.014;2023-01-30T13:02:13;97861.82;;;1.07;100.00
25664;BME280;13522;50.018;20.014;2023-01-30T13:05:42;97862.75;;;1.06;100.00
25664;BME280;13522;50.018;20.014;2023-01-30T13:09:06;97858.98;;;1.10;100.00
25664;BME280;13522;50.018;20.014;2023-01-30T13:12:31;97850.29;;;1.09;100.00
25664;BME280;13522;50.018;20.014;2023-01-30T13:15:50;97844.98;;;1.11;100.00
25664;BME280;13522;50.018;20.014;2023-01-30T13:19:09;97837.63;;;1.16;100.00
25664;BME280;13522;50.018;20.014;2023-01-30T13:22:29;97840.13;;;1.17;100.00
25664;BME280;13522;50.018;20.014;2023-01-30T13:25:49;97839.33;;;1.17;100.00
25664;BME280;13522;50.018;20.014;2023-01-30T13:29:08;97845.28;;;1.19;100.00
25664;BME280;13522;50.018;20.014;2023-01-30T13:32:29;97837.63;;;1.16;100.00
25664;BME280;13522;50.018;20.014;2023-01-30T13:35:46;97830.45;;;1.07;100.00
25664;BME280;13522;50.018;20.014;2023-01-30T13:39:02;97823.42;;;1.07;100.00
25664;BME280;13522;50.018;20.014;2023-01-30T13:42:25;97827.30;;;1.02;100.00
25664;BME280;13522;50.018;20.014;2023-01-30T13:45:41;97825.65;;;1.01;100.00
25664;BME280;13522;50.018;20.014;2023-01-30T13:49:04;97818.62;;;1.01;100.00
25664;BME280;13522;50.018;20.014;2023-01-30T13:52:23;97822.08;;;1.02;100.00
25664;BME280;13522;50.018;20.014;2023-01-30T13:55:44;97819.77;;;1.10;100.00
25664;BME280;13522;50.018;20.014;2023-01-30T13:59:02;97820.72;;;1.09;100.00
25664;BME280;13522;50.018;20.014;2023-01-30T14:02:21;97829.49;;;1.08;100.00
25664;BME280;13522;50.018;20.014;2023-01-30T14:09:24;97819.88;;;1.08;100.00
25664;BME280;13522;50.018;20.014;2023-01-30T14:12:41;97824.06;;;1.11;100.00
25664;BME280;13522;50.018;20.014;2023-01-30T14:15:57;97837.02;;;1.12;100.00
25664;BME280;13522;50.018;20.014;2023-01-30T14:19:35;97823.42;;;1.07;100.00
25664;BME280;13522;50.018;20.014;2023-01-30T14:22:53;97829.61;;;1.06;100.00
25664;BME280;13522;50.018;20.014;2023-01-30T14:26:06;97822.38;;;1.10;100.00
25664;BME280;13522;50.018;20.014;2023-01-30T14:36:47;97822.91;;;1.15;100.00
25664;BME280;13522;50.018;20.014;2023-01-30T14:40:00;97817.33;;;1.19;100.00
25664;BME280;13522;50.018;20.014;2023-01-30T14:43:49;97817.97;;;1.23;100.00
25664;BME280;13522;50.018;20.014;2023-01-30T14:47:02;97818.47;;;1.28;100.00
25664;BME280;13522;50.018;20.014;2023-01-30T14:50:22;97820.04;;;1.30;100.00
25664;BME280;13522;50.018;20.014;2023-01-30T14:53:35;97819.80;;;1.33;100.00
25664;BME280;13522;50.018;20.014;2023-01-30T14:56:50;97812.56;;;1.37;100.00
25664;BME280;13522;50.018;20.014;2023-01-30T15:00:14;97817.72;;;1.38;100.00
25664;BME280;13522;50.018;20.014;2023-01-30T15:03:27;97821.66;;;1.44;100.00
25664;BME280;13522;50.018;20.014;2023-01-30T15:06:42;97825.85;;;1.46;100.00
25664;BME280;13522;50.018;20.014;2023-01-30T15:09:56;97827.39;;;1.49;100.00
25664;BME280;13522;50.018;20.014;2023-01-30T15:13:26;97828.11;;;1.51;100.00
25664;BME280;13522;50.018;20.014;2023-01-30T15:16:58;97842.56;;;1.56;100.00
25664;BME280;13522;50.018;20.014;2023-01-30T15:20:29;97836.25;;;1.59;100.00
25664;BME280;13522;50.018;20.014;2023-01-30T15:23:57;97830.20;;;1.58;100.00
25664;BME280;13522;50.018;20.014;2023-01-30T15:27:18;97843.77;;;1.63;100.00
25664;BME280;13522;50.018;20.014;2023-01-30T15:30:47;97849.62;;;1.67;100.00
25664;BME280;13522;50.018;20.014;2023-01-30T15:34:19;97849.50;;;1.68;99.75
25664;BME280;13522;50.018;20.014;2023-01-30T15:37:34;97862.58;;;1.68;100.00
25664;BME280;13522;50.018;20.014;2023-01-30T15:40:48;97850.46;;;1.67;100.00
25664;BME280;13522;50.018;20.014;2023-01-30T15:48:02;97856.73;;;1.65;100.00
25664;BME280;13522;50.018;20.014;2023-01-30T15:51:39;97854.13;;;1.65;100.00
25664;BME280;13522;50.018;20.014;2023-01-30T15:54:52;97866.36;;;1.64;100.00
25664;BME280;13522;50.018;20.014;2023-01-30T15:58:14;97861.97;;;1.65;100.00
25664;BME280;13522;50.018;20.014;2023-01-30T16:01:29;97867.44;;;1.62;100.00
25664;BME280;13522;50.018;20.014;2023-01-30T16:04:42;97853.84;;;1.57;100.00
25664;BME280;13522;50.018;20.014;2023-01-30T16:07:55;97865.38;;;1.54;100.00
25664;BME280;13522;50.018;20.014;2023-01-30T16:11:09;97861.19;;;1.52;100.00
25664;BME280;13522;50.018;20.014;2023-01-30T16:14:23;97874.39;;;1.50;100.00
25664;BME280;13522;50.018;20.014;2023-01-30T16:17:35;97883.78;;;1.53;100.00
25664;BME280;13522;50.018;20.014;2023-01-30T16:20:50;97890.70;;;1.54;100.00
25664;BME280;13522;50.018;20.014;2023-01-30T16:24:11;97880.23;;;1.54;100.00
25664;BME280;13522;50.018;20.014;2023-01-30T16:27:28;97888.81;;;1.56;100.00
25664;BME280;13522;50.018;20.014;2023-01-30T16:30:42;97886.08;;;1.57;100.00
25664;BME280;13522;50.018;20.014;2023-01-30T16:33:55;97897.88;;;1.63;100.00
25664;BME280;13522;50.018;20.014;2023-01-30T16:37:21;97910.53;;;1.69;100.00
25664;BME280;13522;50.018;20.014;2023-01-30T16:40:45;97907.59;;;1.73;100.00
25664;BME280;13522;50.018;20.014;2023-01-30T16:44:22;97908.81;;;1.81;100.00
25664;BME280;13522;50.018;20.014;2023-01-30T16:47:46;97905.88;;;1.85;100.00
25664;BME280;13522;50.018;20.014;2023-01-30T16:51:13;97894.96;;;1.91;100.00
25664;BME280;13522;50.018;20.014;2023-01-30T16:54:30;97898.06;;;1.96;100.00
25664;BME280;13522;50.018;20.014;2023-01-30T16:57:48;97906.20;;;2.04;100.00
25664;BME280;13522;50.018;20.014;2023-01-30T17:01:02;97907.66;;;2.08;100.00
25664;BME280;13522;50.018;20.014;2023-01-30T17:04:21;97885.05;;;2.07;100.00
25664;BME280;13522;50.018;20.014;2023-01-30T17:07:37;97881.02;;;2.14;100.00
25664;BME280;13522;50.018;20.014;2023-01-30T17:10:58;97890.45;;;2.17;100.00
25664;BME280;13522;50.018;20.014;2023-01-30T17:14:21;97886.65;;;2.21;100.00
25664;BME280;13522;50.018;20.014;2023-01-30T17:17:36;97892.49;;;2.24;100.00
25664;BME280;13522;50.018;20.014;2023-01-30T17:20:48;97881.80;;;2.27;100.00
25664;BME280;13522;50.018;20.014;2023-01-30T17:24:02;97877.38;;;2.28;100.00